Flight Track Log - Related Links

Times and Time Zones

All times are in EDT time to prevent confusion due to time zone crossing. See the RPA3383 flight status page for this flight to view local times or setup timezone preferences in your user account.

Time Position Orientation Groundspeed Altitude Reporting Facility
EDT Latitude Longitude Course Direction KTS MPH feet Rate Location/Type
Thu 06:21:17 AM 41.7350 -71.4192 166° South 149 171 800  Level Boston Center
Thu 06:22:24 AM 41.7617 -71.3464 64° Northeast 212 244 2,600 1,843 Climbing Boston Center
Thu 06:23:24 AM 41.7897 -71.2539 68° East 267 307 4,700 2,182 Climbing Boston Center
Thu 06:24:00 AM 41.5294 -71.8421 162° South  Level Estimated
Thu 06:24:03 AM 41.7581 -71.2100 134° Southeast 284 327 6,200  Level Boston Center
Thu 06:25:00 AM 41.4805 -71.9452 159° South  Level Estimated
Thu 06:25:03 AM 41.6956 -71.2139 183° South 279 321 8,500  Level Boston Center
Thu 06:26:00 AM 41.4316 -72.0481 166° South  Level Estimated
Thu 06:26:03 AM 41.6122 -71.2183 182° South 271 312 11,100  Level Boston Center
Thu 06:27:03 AM 41.5372 -71.2225 182° South 290 334 13,600 2,650 Climbing Boston Center
Thu 06:28:03 AM 41.4456 -71.2328 185° South 301 346 16,400 2,300 Climbing Boston Center
Thu 06:29:03 AM 41.3644 -71.2369 182° South 318 366 18,200 1,950 Climbing Boston Center
Thu 06:30:03 AM 41.2769 -71.2497 186° South 318 366 20,300 2,000 Climbing Boston Center
Thu 06:31:03 AM 41.1900 -71.2844 197° South 324 373 22,200 1,750 Climbing Boston Center
Thu 06:32:03 AM 41.1283 -71.3847 231° Southwest 324 373 23,800 1,650 Climbing Boston Center
Thu 06:33:03 AM 41.0731 -71.4986 237° Southwest 341 392 25,500 1,700 Climbing Boston Center
Thu 06:34:03 AM 41.0053 -71.6067 230° Southwest 354 407 27,200 1,250 Climbing Boston Center
Thu 06:35:03 AM 40.9539 -71.7172 238° Southwest 374 430 28,000 364 Climbing Boston Center
Thu 06:36:15 AM 40.8775 -71.8500 233° Southwest 379 436 28,000 409 Level Boston Center
Thu 06:37:15 AM 40.7989 -71.9575 226° Southwest 379 436 28,900 1,150 Climbing Boston Center
Thu 06:38:15 AM 40.7428 -72.0400 228° Southwest 379 436 30,300 1,500 Climbing Boston Center
Thu 06:39:15 AM 40.6642 -72.1447 225° Southwest 379 436 31,900 850 Climbing Boston Center
Thu 06:40:15 AM 40.5997 -72.2406 228° Southwest 369 425 32,000 50 Climbing Boston Center
Thu 06:41:15 AM 40.5289 -72.3364 226° Southwest 369 425 32,000  Level Boston Center
Thu 06:42:15 AM 40.4644 -72.4319 228° Southwest 369 425 32,000  Level Boston Center
Thu 06:43:15 AM 40.3978 -72.5244 227° Southwest 364 419 32,000 600 Level Boston Center
Thu 06:44:15 AM 40.3289 -72.6197 227° Southwest 364 419 33,200 900 Climbing Boston Center
Thu 06:45:15 AM 40.2642 -72.7147 228° Southwest 364 419 33,800 400 Climbing Boston Center
Thu 06:46:15 AM 40.1972 -72.8094 227° Southwest 364 419 34,000 100 Climbing Boston Center
Thu 06:47:15 AM 40.1281 -72.9094 228° Southwest 364 419 34,000  Level Boston Center
Thu 06:48:15 AM 40.0589 -73.0067 227° Southwest 369 425 34,000  Level Boston Center
Thu 06:49:15 AM 39.9936 -73.1008 228° Southwest 369 425 34,000  Level Boston Center
Thu 06:49:42 AM 39.9594 -73.1472 226° Southwest 368 423 34,000  Level Washington Center
Thu 06:50:43 AM 39.8967 -73.2358 227° Southwest 363 418 34,000  Level Washington Center
Thu 06:51:42 AM 39.8275 -73.3300 226° Southwest 363 418 34,000  Level Washington Center
Thu 06:52:42 AM 39.7564 -73.4214 225° Southwest 363 418 34,000  Level Washington Center
Thu 06:53:43 AM 39.6894 -73.5258 230° Southwest 363 418 34,000  Level Washington Center
Thu 06:54:43 AM 39.6331 -73.6381 237° Southwest 368 423 34,000 -712 Level Washington Center
Thu 06:55:41 AM 39.5783 -73.7500 238° Southwest 374 430 32,600 -1,563 Descending Washington Center
Thu 06:56:42 AM 39.5217 -73.8617 237° Southwest 380 437 30,900 -1,686 Descending Washington Center
Thu 06:57:42 AM 39.4650 -73.9706 236° Southwest 380 437 29,200 -1,736 Descending Washington Center
Thu 06:58:43 AM 39.4039 -74.0822 235° Southwest 380 437 27,400 -1,765 Descending Washington Center
Thu 06:59:41 AM 39.3511 -74.1906 238° Southwest 380 437 25,700 -1,700 Descending Washington Center
Thu 07:00:43 AM 39.2961 -74.2989 237° Southwest 380 437 24,000 -1,623 Descending Washington Center
Thu 07:01:43 AM 39.2428 -74.3989 235° Southwest 369 425 22,400 -1,600 Descending Washington Center
Thu 07:02:43 AM 39.1894 -74.4964 235° Southwest 352 405 20,800 -1,627 Descending Washington Center
Thu 07:03:41 AM 39.1383 -74.5933 236° Southwest 341 392 19,200 -1,424 Descending Washington Center
Thu 07:04:41 AM 39.0892 -74.6931 238° Southwest 341 392 18,000 -595 Descending Washington Center
Thu 07:05:42 AM 39.0378 -74.7900 236° Southwest 336 387 18,000 -148 Level Washington Center
Thu 07:06:43 AM 38.9861 -74.8839 235° Southwest 336 387 17,700 -1,008 Descending Washington Center
Thu 07:07:41 AM 38.9367 -74.9753 235° Southwest 330 380 16,000 -1,714 Descending Washington Center
Thu 07:08:42 AM 38.8892 -75.0636 235° Southwest 330 380 14,300 -1,000 Descending Washington Center
Thu 07:09:41 AM 38.8417 -75.1572 237° Southwest 324 373 14,000 -200 Descending Washington Center
Thu 07:10:42 AM 38.8064 -75.2533 245° Southwest 313 360 13,900  Descending Washington Center
Thu 07:11:42 AM 38.8006 -75.3653 266° West 300 345 14,000 51 Climbing Washington Center
Thu 07:12:40 AM 38.7944 -75.4744 266° West 305 351 14,000  Level Washington Center
Thu 07:13:41 AM 38.7883 -75.5811 266° West 305 351 14,000 -50 Level Washington Center
Thu 07:14:41 AM 38.7797 -75.6928 264° West 315 362 13,900 -49 Descending Washington Center
Thu 07:15:43 AM 38.7714 -75.8019 264° West 315 362 13,900 -400 Level Washington Center
Thu 07:16:41 AM 38.7669 -75.9111 267° West 315 362 13,100 -1,210 Descending Washington Center
Thu 07:17:42 AM 38.7583 -76.0203 264° West 310 357 11,500 -1,100 Descending Washington Center
Thu 07:18:41 AM 38.7600 -76.1242 271° West 310 357 10,900 -650 Descending Washington Center
Thu 07:19:42 AM 38.7678 -76.2306 275° West 310 357 10,200 -443 Descending Washington Center
Thu 07:20:43 AM 38.7775 -76.3319 277° West 305 351 10,000 -125 Descending Washington Center
Thu 07:21:18 AM 38.7833 -76.4000 276° West 269 310 10,000  Level Potomac TRACON
Thu 07:22:18 AM 38.7500 -76.4833 243° Southwest 278 320 10,000 -365 Level Potomac TRACON
Thu 07:23:13 AM 38.7333 -76.5667 256° West 279 321 9,300 -939 Descending Potomac TRACON
Thu 07:24:13 AM 38.7000 -76.6667 247° West 272 313 8,200 -1,450 Descending Potomac TRACON
Thu 07:25:13 AM 38.6667 -76.7500 243° Southwest 267 307 6,400 -1,664 Descending Potomac TRACON
Thu 07:26:12 AM 38.6333 -76.8167 237° Southwest 263 303 4,900 -1,263 Descending Potomac TRACON
Thu 07:27:07 AM 38.5833 -76.8667 218° Southwest 248 285 4,000 -470 Descending Potomac TRACON
Thu 07:28:07 AM 38.5333 -76.9167 218° Southwest 215 247 4,000 -350 Level Potomac TRACON
Thu 07:29:07 AM 38.5167 -76.9833 252° West 168 193 3,300 -750 Descending Potomac TRACON
Thu 07:30:07 AM 38.5500 -77.0000 339° North 179 206 2,500 -400 Descending Potomac TRACON
Thu 07:31:07 AM 38.6000 -77.0167 345° North 172 198 2,500  Level Potomac TRACON
Thu 07:32:07 AM 38.6500 -77.0167 360° North 173 199 2,500  Level Potomac TRACON
Thu 07:33:07 AM 38.7000 -77.0167 360° North 172 198 2,500 -300 Level Potomac TRACON
Thu 07:34:07 AM 38.7500 -77.0333 345° North 175 201 1,900 -600 Descending Potomac TRACON

Login

Don't have an account? Register now (free) for customized features, flight alerts, and more!